Polar Ranger — WDC8652 — position and weather

sailwx.info

Track history (hours):
 
Tides and Currents Weather Stations Pressure Air Temp Water Temp Dewpoint Dewpoint Depression Visibility Wind Speed Wind Dir Waves Ship Positions

Polar Ranger

Owner: Dunlap Towing Co., LaConner, WA. More information available from US FCC via Universal Licensing System and Coast Guard Vessel Documentation Center.

Last reported at 2017-Aug-14 13:43 UTC. Time now 2017-Aug-17 01:44 UTC.
Position N 58°15' W 135°33'.

Type: Towing. MMSI: 367090860.

Date/timePositionNaut miles runAvg speedWind from/ knotsBaromVisibWave heightAir tempDewpointWater temp
2017-Aug-14 13:43N 58°15' W 135°33'1 4.8
2017-Aug-14 13:25N 58°16' W 135°35'2 4.7
2017-Aug-14 12:57N 58°17' W 135°39'2 4.9
2017-Aug-14 12:29N 58°18' W 135°43'3 6.0
2017-Aug-14 12:00N 58°19' W 135°49'3 6.7
2017-Aug-14 11:30N 58°17' W 135°54'4 7.4
2017-Aug-14 11:00N 58°16' W 136°01'5 7.3
2017-Aug-14 10:18N 58°16' W 136°11'2 6.4
2017-Aug-14 09:58N 58°17' W 136°14'100 9.1
2017-Aug-13 23:00N 58°18' W 139°24'   230 / 201004.0 5.4 15.6 15.6
Track history (hours):
 
Tides and Currents Weather Stations Pressure Air Temp Water Temp Dewpoint Dewpoint Depression Visibility Wind Speed Wind Dir Waves Ship Positions

Polar Ranger

Owner: Dunlap Towing Co., LaConner, WA. More information available from US FCC via Universal Licensing System and Coast Guard Vessel Documentation Center.

Last reported at 2017-Aug-14 13:43 UTC. Time now 2017-Aug-17 01:44 UTC.
Position N 58°15' W 135°33'.

Type: Towing. MMSI: 367090860.

Date/timePositionNaut miles runAvg speedWind from/ knotsBaromVisibWave heightAir tempDewpointWater temp
2017-Aug-14 13:43N 58°15' W 135°33'1 4.8
2017-Aug-14 13:25N 58°16' W 135°35'2 4.7
2017-Aug-14 12:57N 58°17' W 135°39'2 4.9
2017-Aug-14 12:29N 58°18' W 135°43'3 6.0
2017-Aug-14 12:00N 58°19' W 135°49'3 6.7
2017-Aug-14 11:30N 58°17' W 135°54'4 7.4
2017-Aug-14 11:00N 58°16' W 136°01'5 7.3
2017-Aug-14 10:18N 58°16' W 136°11'2 6.4
2017-Aug-14 09:58N 58°17' W 136°14'100 9.1
2017-Aug-13 23:00N 58°18' W 139°24'   230 / 201004.0 5.4 15.6 15.6

Dump ship's entire track history